createdAt,value
2022-10-07T00:03:06.597Z,23.40
2022-10-07T00:08:10.933Z,23.40
2022-10-07T00:13:13.617Z,23.38
2022-10-07T00:18:16.216Z,23.34
2022-10-07T00:23:20.208Z,23.32
2022-10-07T00:28:25.548Z,23.28
2022-10-07T00:33:31.252Z,23.25
2022-10-07T00:38:35.180Z,23.24
2022-10-07T00:43:37.836Z,23.26
2022-10-07T00:48:41.241Z,23.23
2022-10-07T00:53:49.235Z,23.20
2022-10-07T00:58:52.685Z,23.17
2022-10-07T01:03:55.647Z,23.14
2022-10-07T01:09:00.964Z,23.10
2022-10-07T01:14:11.124Z,23.08
2022-10-07T01:19:36.255Z,23.04
2022-10-07T01:24:43.841Z,22.97
2022-10-07T01:29:56.089Z,22.96
2022-10-07T01:35:00.900Z,22.88
2022-10-07T01:40:11.256Z,22.86
2022-10-07T01:45:21.302Z,22.82
2022-10-07T01:50:27.404Z,22.78
2022-10-07T01:55:43.280Z,22.73
2022-10-07T02:00:55.187Z,22.70
2022-10-07T02:06:06.320Z,22.69
2022-10-07T02:11:16.502Z,22.66
2022-10-07T02:16:30.909Z,22.62
2022-10-07T02:21:36.908Z,22.61
2022-10-07T02:26:42.532Z,22.59
2022-10-07T02:31:49.477Z,22.55
2022-10-07T02:36:55.935Z,22.54
2022-10-07T02:42:04.257Z,22.51
2022-10-07T02:47:16.149Z,22.49
2022-10-07T02:52:21.223Z,22.47
2022-10-07T02:57:28.784Z,22.44
2022-10-07T03:02:44.337Z,22.41
2022-10-07T03:07:48.422Z,22.40
2022-10-07T03:12:51.181Z,22.36
2022-10-07T03:17:55.215Z,22.35
2022-10-07T03:22:57.896Z,22.33
2022-10-07T03:28:00.557Z,22.33
2022-10-07T03:33:04.886Z,22.29
2022-10-07T03:38:08.426Z,22.27
2022-10-07T03:43:11.576Z,22.25
2022-10-07T03:48:16.732Z,22.21
2022-10-07T03:53:20.336Z,22.18
2022-10-07T03:58:23.655Z,22.15
2022-10-07T04:03:28.219Z,22.12
2022-10-07T04:08:32.882Z,22.10
2022-10-07T04:13:37.103Z,22.08
2022-10-07T04:18:42.762Z,22.06
2022-10-07T04:23:45.987Z,22.03
2022-10-07T04:28:51.398Z,22.00
2022-10-07T04:33:58.212Z,21.99
2022-10-07T04:39:06.541Z,21.97
2022-10-07T04:44:27.958Z,21.95
2022-10-07T04:49:38.540Z,21.93
2022-10-07T04:54:43.967Z,21.92
2022-10-07T04:59:46.872Z,21.90
2022-10-07T05:04:55.252Z,21.88
2022-10-07T05:09:57.985Z,21.86
2022-10-07T05:15:03.026Z,21.85
2022-10-07T05:20:08.330Z,21.81
2022-10-07T05:25:11.257Z,21.80
2022-10-07T05:30:14.584Z,21.78
2022-10-07T05:35:18.653Z,21.75
2022-10-07T05:40:21.510Z,21.74
2022-10-07T05:45:25.699Z,21.72
2022-10-07T05:50:30.440Z,21.71
2022-10-07T05:55:35.723Z,21.69
2022-10-07T06:00:50.809Z,21.68
2022-10-07T06:05:55.975Z,21.66
2022-10-07T06:11:19.631Z,21.64
2022-10-07T06:16:24.481Z,21.63
2022-10-07T06:21:29.460Z,21.63
2022-10-07T06:26:36.667Z,21.62
2022-10-07T06:31:39.451Z,21.61
2022-10-07T06:36:44.159Z,21.61
2022-10-07T06:41:47.389Z,21.59
2022-10-07T06:47:22.519Z,21.60
2022-10-07T06:52:27.502Z,21.58
2022-10-07T06:57:44.894Z,21.57
2022-10-07T07:02:48.627Z,20.98
2022-10-07T07:07:53.071Z,20.16
2022-10-07T07:12:56.510Z,19.70
2022-10-07T07:17:59.245Z,19.40
2022-10-07T07:23:03.510Z,19.16
2022-10-07T07:28:08.078Z,19.58
2022-10-07T07:33:11.828Z,19.93
2022-10-07T07:38:15.945Z,20.14
2022-10-07T07:43:18.983Z,20.31
2022-10-07T07:48:21.716Z,20.44
2022-10-07T07:53:25.878Z,20.54
2022-10-07T07:58:29.927Z,20.66
2022-10-07T08:03:33.336Z,20.75
2022-10-07T08:08:37.661Z,20.83
2022-10-07T08:13:41.464Z,20.88
2022-10-07T08:18:48.029Z,20.92
2022-10-07T08:23:55.109Z,21.01
2022-10-07T08:28:59.748Z,21.09
2022-10-07T08:34:04.927Z,21.14
2022-10-07T08:39:08.828Z,21.18
2022-10-07T08:44:20.207Z,21.27
2022-10-07T08:49:31.692Z,21.32
2022-10-07T08:54:35.873Z,21.30
2022-10-07T08:59:47.685Z,21.24
2022-10-07T09:04:57.666Z,21.25
2022-10-07T09:10:15.744Z,21.26
2022-10-07T09:15:23.583Z,21.36
2022-10-07T09:20:31.917Z,21.41
2022-10-07T09:25:36.206Z,21.45
2022-10-07T09:30:38.984Z,21.46
2022-10-07T09:35:42.811Z,21.49
2022-10-07T09:41:03.987Z,21.51
2022-10-07T09:46:07.585Z,21.54
2022-10-07T09:51:15.510Z,21.56
2022-10-07T09:56:41.690Z,21.59
2022-10-07T10:01:50.576Z,21.60
2022-10-07T10:06:55.342Z,21.64
2022-10-07T10:12:12.103Z,21.62
2022-10-07T10:17:24.095Z,21.76
2022-10-07T10:22:28.393Z,21.81
2022-10-07T10:27:39.714Z,21.84
2022-10-07T10:33:14.658Z,21.47
2022-10-07T10:38:32.343Z,21.55
2022-10-07T10:43:51.753Z,21.55
2022-10-07T10:49:00.827Z,21.55
2022-10-07T10:54:18.719Z,21.70
2022-10-07T10:59:47.185Z,21.71
2022-10-07T11:04:54.059Z,21.72
2022-10-07T11:10:00.742Z,21.77
2022-10-07T11:15:15.148Z,21.87
2022-10-07T11:20:25.098Z,22.00
2022-10-07T11:25:34.214Z,22.02
2022-10-07T11:30:49.196Z,22.12
2022-10-07T11:35:57.323Z,22.27
2022-10-07T11:41:05.850Z,22.41
2022-10-07T11:46:17.266Z,22.54
2022-10-07T11:51:25.606Z,22.64
2022-10-07T11:56:37.895Z,22.75
2022-10-07T12:01:52.304Z,22.85
2022-10-07T12:07:34.764Z,22.96
2022-10-07T12:12:49.407Z,23.10
2022-10-07T12:17:56.830Z,23.23
2022-10-07T12:23:37.965Z,23.38
2022-10-07T12:28:48.647Z,23.45
2022-10-07T12:33:58.367Z,23.54
2022-10-07T12:39:36.045Z,23.60
2022-10-07T12:44:45.495Z,23.63
2022-10-07T12:49:54.449Z,23.66
2022-10-07T12:55:01.860Z,23.75
2022-10-07T13:00:08.210Z,23.87
2022-10-07T13:05:47.309Z,23.92
2022-10-07T13:11:33.263Z,24.01
2022-10-07T13:16:42.276Z,24.13
2022-10-07T13:21:52.539Z,24.21
2022-10-07T13:26:57.069Z,24.27
2022-10-07T13:32:05.694Z,24.48
2022-10-07T13:37:28.928Z,24.56
2022-10-07T13:42:31.627Z,24.65
2022-10-07T13:47:35.128Z,24.76
2022-10-07T13:52:44.324Z,24.84
2022-10-07T13:57:47.608Z,24.84
2022-10-07T14:02:51.020Z,24.97
2022-10-07T14:07:58.105Z,24.94
2022-10-07T14:13:04.119Z,24.94
2022-10-07T14:18:12.214Z,24.86
2022-10-07T14:23:28.475Z,24.82
2022-10-07T14:28:32.518Z,24.82
2022-10-07T14:34:06.895Z,24.83
2022-10-07T14:39:24.951Z,24.84
2022-10-07T14:44:27.811Z,24.87
2022-10-07T14:49:30.472Z,24.93
2022-10-07T14:54:36.019Z,25.01
2022-10-07T14:59:38.879Z,25.14
2022-10-07T15:04:42.021Z,25.18
2022-10-07T15:09:47.314Z,25.24
2022-10-07T15:14:49.966Z,25.30
2022-10-07T15:19:53.196Z,25.36
2022-10-07T15:24:57.431Z,25.40
2022-10-07T15:30:00.301Z,25.25
2022-10-07T15:35:03.120Z,25.18
2022-10-07T15:40:08.831Z,25.13
2022-10-07T15:45:12.152Z,25.13
2022-10-07T15:50:16.013Z,25.08
2022-10-07T15:55:20.005Z,25.03
2022-10-07T16:00:22.617Z,25.00
2022-10-07T16:05:25.320Z,25.03
2022-10-07T16:10:29.455Z,24.98
2022-10-07T16:15:32.223Z,24.91
2022-10-07T16:20:38.938Z,24.64
2022-10-07T16:25:42.864Z,24.09
2022-10-07T16:30:50.779Z,24.17
2022-10-07T16:35:53.409Z,24.33
2022-10-07T16:40:57.372Z,24.38
2022-10-07T16:46:01.967Z,24.38
2022-10-07T16:51:05.645Z,24.38
2022-10-07T16:56:10.764Z,24.53
2022-10-07T17:01:16.501Z,24.60
2022-10-07T17:06:20.783Z,24.57
2022-10-07T17:11:31.115Z,24.50
2022-10-07T17:16:36.355Z,24.58
2022-10-07T17:21:44.083Z,24.63
2022-10-07T17:26:49.402Z,24.65
2022-10-07T17:31:52.467Z,24.67
2022-10-07T17:36:55.080Z,24.50
2022-10-07T17:41:59.092Z,24.56
2022-10-07T17:47:03.862Z,24.66
2022-10-07T17:52:06.908Z,24.62
2022-10-07T17:57:11.048Z,24.59
2022-10-07T18:02:13.713Z,24.62
2022-10-07T18:07:17.389Z,24.62
2022-10-07T18:12:35.334Z,24.63
2022-10-07T18:17:37.959Z,24.65
2022-10-07T18:22:40.622Z,24.64
2022-10-07T18:27:44.878Z,24.65
2022-10-07T18:32:47.669Z,24.59
2022-10-07T18:37:52.119Z,24.66
2022-10-07T18:42:56.104Z,24.63
2022-10-07T18:47:58.708Z,24.64
2022-10-07T18:53:01.387Z,24.61
2022-10-07T18:58:05.347Z,24.61
2022-10-07T19:03:08.140Z,24.62
2022-10-07T19:08:11.691Z,24.62
2022-10-07T19:13:34.121Z,24.55
2022-10-07T19:18:37.760Z,24.52
2022-10-07T19:23:41.244Z,24.49
2022-10-07T19:28:46.602Z,24.47
2022-10-07T19:33:50.122Z,24.45
2022-10-07T19:38:53.390Z,24.40
2022-10-07T19:43:58.536Z,24.41
2022-10-07T19:49:02.725Z,24.45
2022-10-07T19:54:09.869Z,24.41
2022-10-07T19:59:15.352Z,24.41
2022-10-07T20:04:20.812Z,24.39
2022-10-07T20:09:24.037Z,24.38
2022-10-07T20:14:28.186Z,24.43
2022-10-07T20:19:30.771Z,24.39
2022-10-07T20:24:33.563Z,24.35
2022-10-07T20:29:56.957Z,24.47
2022-10-07T20:34:59.630Z,24.42
2022-10-07T20:40:19.871Z,24.38
2022-10-07T20:45:23.832Z,24.32
2022-10-07T20:50:26.635Z,24.35
2022-10-07T20:55:34.031Z,24.36
2022-10-07T21:00:40.103Z,24.35
2022-10-07T21:05:42.724Z,24.34
2022-10-07T21:10:45.299Z,24.35
2022-10-07T21:15:49.221Z,24.42
2022-10-07T21:20:56.525Z,24.41
2022-10-07T21:26:01.324Z,24.41
2022-10-07T21:31:08.505Z,24.40
2022-10-07T21:36:15.736Z,24.36
2022-10-07T21:41:23.353Z,24.40
2022-10-07T21:46:30.457Z,24.37
2022-10-07T21:51:34.333Z,24.39
2022-10-07T21:56:36.999Z,24.36
2022-10-07T22:01:41.734Z,24.37
2022-10-07T22:07:02.347Z,24.36
2022-10-07T22:12:05.296Z,24.37
2022-10-07T22:17:09.320Z,24.35
2022-10-07T22:22:12.823Z,24.34
2022-10-07T22:27:15.407Z,24.32
2022-10-07T22:32:19.329Z,24.34
2022-10-07T22:37:22.039Z,24.34
2022-10-07T22:42:24.595Z,24.32
2022-10-07T22:47:29.031Z,24.29
2022-10-07T22:52:31.815Z,24.31
2022-10-07T22:57:36.347Z,24.32
2022-10-07T23:02:40.437Z,24.28
2022-10-07T23:07:43.144Z,24.27
2022-10-07T23:12:46.536Z,24.28
2022-10-07T23:17:50.706Z,24.30
2022-10-07T23:22:53.307Z,24.33
2022-10-07T23:27:55.903Z,24.32
2022-10-07T23:32:59.836Z,24.32
2022-10-07T23:38:02.498Z,24.29
2022-10-07T23:43:05.680Z,24.30
2022-10-07T23:48:09.727Z,24.32
2022-10-07T23:53:12.463Z,24.32
2022-10-07T23:58:16.051Z,24.30
